Time;durP1;ratioP1;P1;durP2;ratioP2;P2;SDS_P1;SDS_P2;PMS_P1;PMS_P2;Temp;Humidity;BMP_temperature;BMP_pressure;BME280_temperature;BME280_humidity;BME280_pressure;Samples;Min_cycle;Max_cycle;Signal;HPM_P1;HPM_P2
2023/07/23 00:00:49;;;;;;;4.38;2.60;;;;;;;27.07;39.37;100252.97;5091487;28;20044;-69
2023/07/23 00:03:18;;;;;;;4.13;2.50;;;;;;;27.05;39.15;100244.13;5091354;28;20048;-69
2023/07/23 00:05:46;;;;;;;4.80;2.83;;;;;;;27.03;39.33;100257.19;5091352;28;20550;-68
2023/07/23 00:08:14;;;;;;;3.75;2.40;;;;;;;27.03;39.67;100257.19;5095055;28;20055;-69
2023/07/23 00:10:43;;;;;;;3.60;2.25;;;;;;;27.02;39.62;100249.94;5095455;28;20083;-69
2023/07/23 00:13:11;;;;;;;4.30;2.65;;;;;;;27.01;39.89;100253.72;5095744;28;20048;-68
2023/07/23 00:15:41;;;;;;;4.85;2.67;;;;;;;26.99;39.58;100245.72;5095454;28;20047;-69
2023/07/23 00:18:09;;;;;;;4.80;2.28;;;;;;;26.97;39.84;100241.50;5095491;28;20040;-69
2023/07/23 00:20:37;;;;;;;3.85;2.33;;;;;;;26.98;39.74;100248.66;5095497;28;20052;-69
2023/07/23 00:23:06;;;;;;;4.20;2.42;;;;;;;26.97;39.72;100249.72;5095419;28;20131;-68
2023/07/23 00:25:34;;;;;;;4.55;2.60;;;;;;;26.95;39.89;100255.41;5095310;28;20123;-68
2023/07/23 00:28:02;;;;;;;4.10;2.50;;;;;;;26.95;39.70;100254.56;5095477;28;20054;-68
2023/07/23 00:30:31;;;;;;;5.68;2.22;;;;;;;26.94;39.72;100256.44;5095143;28;20056;-68
2023/07/23 00:33:00;;;;;;;3.88;2.40;;;;;;;26.93;39.73;100254.75;5095200;28;20063;-68
2023/07/23 00:35:28;;;;;;;3.95;2.47;;;;;;;26.93;40.08;100256.66;5095256;28;20079;-68
2023/07/23 00:37:57;;;;;;;4.10;2.53;;;;;;;26.91;40.21;100264.19;5095163;28;20055;-68
2023/07/23 00:40:25;;;;;;;4.68;2.63;;;;;;;26.91;40.27;100264.19;5095174;28;20044;-68
2023/07/23 00:42:53;;;;;;;4.43;2.60;;;;;;;26.89;40.16;100260.81;5094919;28;20055;-68
2023/07/23 00:45:24;;;;;;;4.40;2.08;;;;;;;26.89;40.02;100260.81;5094975;28;20052;-69
2023/07/23 00:47:52;;;;;;;4.10;2.28;;;;;;;26.86;40.49;100259.31;5094991;28;20048;-68
2023/07/23 00:50:22;;;;;;;5.28;2.83;;;;;;;26.87;40.07;100262.91;5094963;28;20103;-69
2023/07/23 00:52:51;;;;;;;4.88;2.65;;;;;;;26.86;40.18;100261.22;5094833;28;20047;-68
2023/07/23 00:55:19;;;;;;;5.63;2.70;;;;;;;26.85;40.47;100265.00;5095276;28;20397;-70
2023/07/23 00:57:47;;;;;;;5.88;2.83;;;;;;;26.84;40.80;100257.84;5094736;28;20416;-69
2023/07/23 01:00:16;;;;;;;5.90;2.72;;;;;;;26.81;40.65;100259.91;5094909;28;20489;-69
2023/07/23 01:02:44;;;;;;;4.00;2.50;;;;;;;26.81;40.40;100254.41;5094602;28;20485;-69
2023/07/23 01:05:13;;;;;;;4.30;2.72;;;;;;;26.80;40.34;100247.25;5094853;28;20044;-67
2023/07/23 01:07:44;;;;;;;4.75;2.63;;;;;;;26.80;40.39;100252.72;5094544;28;20044;-69
2023/07/23 01:10:13;;;;;;;4.68;2.63;;;;;;;26.80;40.55;100258.19;5094383;28;20538;-69
2023/07/23 01:12:42;;;;;;;4.53;2.60;;;;;;;26.78;40.96;100254.81;5094365;28;20058;-69
2023/07/23 01:15:11;;;;;;;4.10;2.35;;;;;;;26.77;40.92;100264.09;5094753;28;20044;-69
2023/07/23 01:17:40;;;;;;;4.45;2.63;;;;;;;26.77;40.99;100260.50;5094424;28;20040;-69
2023/07/23 01:20:09;;;;;;;6.25;2.90;;;;;;;26.74;41.05;100264.47;5093590;28;20048;-69
2023/07/23 01:22:39;;;;;;;4.88;2.75;;;;;;;26.74;41.20;100269.97;5094226;28;20075;-69
2023/07/23 01:25:08;;;;;;;4.80;2.65;;;;;;;26.74;40.94;100260.91;5094176;28;20473;-69
2023/07/23 01:27:36;;;;;;;7.22;2.50;;;;;;;26.73;40.84;100273.75;5094203;28;20044;-69
2023/07/23 01:30:08;;;;;;;5.78;2.70;;;;;;;26.71;41.11;100270.34;5094349;28;20143;-69
2023/07/23 01:32:37;;;;;;;4.90;3.00;;;;;;;26.71;41.25;100264.84;5094047;28;20052;-69
2023/07/23 01:35:09;;;;;;;4.53;2.53;;;;;;;26.71;41.29;100264.00;5094077;28;20291;-67
2023/07/23 01:37:39;;;;;;;4.35;2.70;;;;;;;26.68;41.06;100268.00;5093723;28;20604;-68
2023/07/23 01:40:08;;;;;;;4.93;2.38;;;;;;;26.68;41.54;100264.41;5093846;28;20047;-69
2023/07/23 01:42:37;;;;;;;6.50;2.88;;;;;;;26.66;41.52;100261.88;5093955;28;20066;-68
2023/07/23 01:45:06;;;;;;;4.55;2.60;;;;;;;26.66;40.95;100261.88;5094066;28;20134;-69
2023/07/23 01:47:34;;;;;;;4.80;2.58;;;;;;;26.65;41.20;100262.09;5093846;28;20052;-68
2023/07/23 01:50:03;;;;;;;4.13;2.20;;;;;;;26.64;41.22;100269.44;5093699;28;20071;-68
2023/07/23 01:52:31;;;;;;;4.20;2.72;;;;;;;26.63;41.56;100262.25;5093866;28;20467;-68
2023/07/23 01:55:01;;;;;;;5.43;3.00;;;;;;;26.61;41.10;100264.34;5093792;28;20051;-68
2023/07/23 01:57:29;;;;;;;5.53;2.40;;;;;;;26.61;41.61;100263.50;5093643;28;20510;-68
2023/07/23 01:59:58;;;;;;;5.05;2.65;;;;;;;26.61;41.17;100272.56;5093621;28;20044;-68
2023/07/23 02:02:26;;;;;;;5.32;2.60;;;;;;;26.59;41.56;100268.31;5093610;28;20052;-68
2023/07/23 02:04:54;;;;;;;4.18;2.50;;;;;;;26.57;41.15;100274.00;5093624;28;20055;-68
2023/07/23 02:07:23;;;;;;;4.95;2.75;;;;;;;26.55;41.59;100265.16;5093687;28;20073;-68
2023/07/23 02:09:52;;;;;;;5.00;2.85;;;;;;;26.56;41.17;100269.56;5093482;28;20420;-68
2023/07/23 02:12:22;;;;;;;4.13;2.60;;;;;;;26.56;41.72;100263.25;5093517;28;20044;-69
2023/07/23 02:14:50;;;;;;;5.72;2.90;;;;;;;26.55;41.57;100265.16;5093006;28;20048;-69
2023/07/23 02:17:18;;;;;;;4.90;2.60;;;;;;;26.55;41.32;100270.63;5093164;28;20048;-69
2023/07/23 02:19:46;;;;;;;4.75;2.70;;;;;;;26.53;41.63;100278.16;5093128;28;20105;-69
2023/07/23 02:22:15;;;;;;;4.22;2.78;;;;;;;26.53;41.45;100272.69;5093222;28;20048;-69
2023/07/23 02:24:43;;;;;;;4.43;2.50;;;;;;;26.52;41.81;100271.84;5093180;28;20145;-69
2023/07/23 02:27:11;;;;;;;3.83;2.53;;;;;;;26.51;41.95;100272.03;5093138;28;20390;-69
2023/07/23 02:29:41;;;;;;;4.78;2.90;;;;;;;26.50;41.48;100282.13;5092778;28;20557;-69
2023/07/23 02:32:11;;;;;;;4.30;2.38;;;;;;;26.48;41.71;100269.69;5093109;28;20050;-69
2023/07/23 02:34:39;;;;;;;4.03;2.60;;;;;;;26.48;41.55;100275.16;5092930;28;20405;-69
2023/07/23 02:37:07;;;;;;;4.53;2.63;;;;;;;26.46;41.62;100271.78;5092876;28;20048;-68
2023/07/23 02:39:38;;;;;;;4.75;2.83;;;;;;;26.47;41.83;100276.22;5092795;28;20130;-69
2023/07/23 02:42:07;;;;;;;5.53;2.50;;;;;;;26.46;41.85;100277.25;5092720;28;20040;-68
2023/07/23 02:44:36;;;;;;;4.60;2.63;;;;;;;26.45;41.69;100281.03;5093016;28;20051;-69
2023/07/23 02:47:06;;;;;;;4.30;2.50;;;;;;;26.44;41.60;100284.78;5092605;28;20048;-69
2023/07/23 02:49:34;;;;;;;4.72;2.60;;;;;;;26.42;41.73;100287.72;5092897;28;20070;-68
2023/07/23 02:52:04;;;;;;;4.78;2.72;;;;;;;26.40;42.17;100283.50;5092593;28;20055;-68
2023/07/23 02:54:34;;;;;;;3.80;2.47;;;;;;;26.40;41.94;100280.75;5092495;28;20048;-68
2023/07/23 02:57:02;;;;;;;4.25;2.58;;;;;;;26.40;42.32;100283.50;5092407;28;20628;-68
2023/07/23 02:59:31;;;;;;;4.00;2.58;;;;;;;26.38;42.02;100278.22;5092339;28;20086;-67
2023/07/23 03:01:59;;;;;;;4.03;2.50;;;;;;;26.37;41.94;100282.00;5092608;28;20063;-67
2023/07/23 03:04:30;;;;;;;4.97;2.90;;;;;;;26.36;42.27;100285.75;5092477;28;20226;-67
2023/07/23 03:06:59;;;;;;;5.20;2.80;;;;;;;26.35;42.11;100280.47;5092174;28;20485;-69
2023/07/23 03:09:27;;;;;;;4.38;2.50;;;;;;;26.34;42.26;100279.59;5091908;28;20059;-69
2023/07/23 03:11:55;;;;;;;4.93;2.92;;;;;;;26.34;41.99;100279.59;5092546;28;20066;-68
2023/07/23 03:14:23;;;;;;;4.18;2.53;;;;;;;26.35;42.07;100280.47;5092217;28;20138;-69
2023/07/23 03:16:52;;;;;;;4.70;2.50;;;;;;;26.34;42.35;100278.75;5092295;28;20052;-69
2023/07/23 03:19:20;;;;;;;4.22;2.47;;;;;;;26.32;42.17;100278.09;5092075;28;20048;-69
2023/07/23 03:21:49;;;;;;;4.45;2.45;;;;;;;26.31;42.09;100279.16;5092050;28;20044;-67
2023/07/23 03:24:18;;;;;;;5.10;2.70;;;;;;;26.30;41.99;100274.72;5091959;28;20048;-68
2023/07/23 03:26:46;;;;;;;4.50;2.70;;;;;;;26.28;41.98;100274.94;5092025;28;20047;-68
2023/07/23 03:29:14;;;;;;;4.65;2.85;;;;;;;26.27;42.29;100273.25;5092111;28;20059;-68
2023/07/23 03:31:42;;;;;;;4.68;2.60;;;;;;;26.27;41.99;100273.25;5091741;28;20061;-69
2023/07/23 03:34:11;;;;;;;4.38;2.80;;;;;;;26.24;42.31;100268.97;5091787;28;20048;-67
2023/07/23 03:36:39;;;;;;;4.57;2.53;;;;;;;26.25;41.96;100275.31;5091662;28;20146;-68
2023/07/23 03:39:08;;;;;;;4.85;2.80;;;;;;;26.24;42.42;100279.06;5091958;28;20070;-69
2023/07/23 03:41:37;;;;;;;4.45;2.75;;;;;;;26.23;42.36;100266.44;5091664;28;20068;-69
2023/07/23 03:44:05;;;;;;;4.35;2.67;;;;;;;26.23;42.48;100275.50;5091582;28;20139;-69
2023/07/23 03:46:33;;;;;;;4.88;2.65;;;;;;;26.20;42.61;100275.88;5091669;28;20489;-69
2023/07/23 03:49:02;;;;;;;4.28;2.55;;;;;;;26.21;42.55;100274.00;5091564;28;20123;-69
2023/07/23 03:51:30;;;;;;;4.20;2.55;;;;;;;26.20;42.25;100273.16;5091514;28;20083;-69
2023/07/23 03:53:58;;;;;;;4.85;2.72;;;;;;;26.19;42.52;100274.19;5091677;28;20047;-69
2023/07/23 03:56:28;;;;;;;4.60;2.70;;;;;;;26.19;42.71;100279.66;5091661;28;20075;-69
2023/07/23 03:58:56;;;;;;;4.53;2.72;;;;;;;26.18;42.71;100277.97;5091626;28;20044;-69
2023/07/23 04:01:24;;;;;;;6.20;2.97;;;;;;;26.17;42.72;100275.44;5091540;28;20131;-68
2023/07/23 04:03:52;;;;;;;4.68;2.88;;;;;;;26.17;42.85;100273.53;5091422;28;20063;-69
2023/07/23 04:06:21;;;;;;;4.70;3.15;;;;;;;26.16;42.69;100279.22;5091592;28;20045;-69
2023/07/23 04:08:49;;;;;;;4.38;2.53;;;;;;;26.16;42.82;100277.31;5091196;28;20490;-70
2023/07/23 04:11:17;;;;;;;5.20;2.80;;;;;;;26.15;42.89;100275.63;5091402;28;20104;-68
2023/07/23 04:13:49;;;;;;;4.28;2.72;;;;;;;26.14;43.05;100273.06;5091330;28;20048;-69
2023/07/23 04:16:17;;;;;;;5.15;3.08;;;;;;;26.13;42.93;100279.56;5091174;28;20040;-69
2023/07/23 04:18:47;;;;;;;4.82;2.78;;;;;;;26.12;42.79;100273.25;5091235;28;20044;-68
2023/07/23 04:21:15;;;;;;;4.20;2.60;;;;;;;26.10;43.03;100272.63;5091483;28;20048;-69
2023/07/23 04:23:47;;;;;;;4.70;3.10;;;;;;;26.13;43.32;100285.03;5091360;28;20040;-68
2023/07/23 04:26:15;;;;;;;4.78;2.67;;;;;;;26.12;42.99;100281.47;5091378;28;20083;-69
2023/07/23 04:28:43;;;;;;;4.20;2.60;;;;;;;26.10;43.14;100277.25;5091212;28;20134;-68
2023/07/23 04:31:13;;;;;;;5.60;2.88;;;;;;;26.11;42.94;100278.94;5091141;28;20048;-68
2023/07/23 04:33:44;;;;;;;5.18;3.00;;;;;;;26.10;43.17;100282.72;5091215;28;20040;-68
2023/07/23 04:36:14;;;;;;;4.85;2.55;;;;;;;26.08;43.14;100282.91;5091241;28;20143;-68
2023/07/23 04:38:44;;;;;;;6.97;3.42;;;;;;;26.08;43.20;100279.31;5091164;28;20101;-68
2023/07/23 04:41:13;;;;;;;5.75;2.83;;;;;;;26.06;43.16;100276.78;5091081;28;20075;-68
2023/07/23 04:43:42;;;;;;;4.82;3.10;;;;;;;26.08;43.75;100285.63;5091124;28;20045;-67
2023/07/23 04:46:11;;;;;;;4.57;2.85;;;;;;;26.08;43.64;100285.63;5091150;28;20056;-69
2023/07/23 04:48:40;;;;;;;4.93;3.00;;;;;;;26.08;43.60;100288.38;5091094;28;20044;-69
2023/07/23 04:51:10;;;;;;;4.53;3.05;;;;;;;26.07;43.41;100294.88;5090994;28;20047;-69
2023/07/23 04:53:38;;;;;;;5.70;3.13;;;;;;;26.07;43.24;100294.03;5091666;28;20146;-67
2023/07/23 04:56:06;;;;;;;5.22;2.92;;;;;;;26.06;43.43;100292.34;5094571;28;20044;-69
2023/07/23 04:58:35;;;;;;;4.28;2.83;;;;;;;26.06;43.45;100298.66;5094997;28;20048;-68
2023/07/23 05:01:09;;;;;;;5.15;3.30;;;;;;;26.05;43.75;100291.47;5094930;28;20089;-69
2023/07/23 05:03:39;;;;;;;5.57;3.40;;;;;;;26.04;43.61;100287.03;5094742;28;20123;-69
2023/07/23 05:06:08;;;;;;;4.70;2.90;;;;;;;26.05;43.64;100302.41;5094678;28;20044;-67
2023/07/23 05:08:36;;;;;;;5.25;3.38;;;;;;;26.04;43.51;100306.16;5094445;28;20058;-67
2023/07/23 05:11:06;;;;;;;4.43;2.90;;;;;;;26.04;43.51;100306.16;5094370;28;20052;-68
2023/07/23 05:13:36;;;;;;;5.32;2.95;;;;;;;26.04;43.98;100308.06;5094598;28;20048;-67
2023/07/23 05:16:04;;;;;;;7.25;3.42;;;;;;;26.04;43.52;100314.38;5094379;28;20048;-69
2023/07/23 05:18:33;;;;;;;5.47;3.17;;;;;;;26.03;43.85;100318.16;5094360;28;20047;-67
2023/07/23 05:21:04;;;;;;;5.30;3.13;;;;;;;26.03;43.52;100315.41;5094333;28;20044;-68
2023/07/23 05:23:32;;;;;;;5.72;3.05;;;;;;;26.03;43.76;100326.34;5094522;28;20048;-68
2023/07/23 05:26:00;;;;;;;5.63;3.15;;;;;;;26.03;43.97;100323.63;5094425;28;20048;-67
2023/07/23 05:28:29;;;;;;;5.38;2.95;;;;;;;26.02;43.82;100324.66;5094307;28;20048;-67
2023/07/23 05:30:59;;;;;;;5.32;3.28;;;;;;;26.01;43.61;100322.97;5094238;28;20052;-66
2023/07/23 05:33:27;;;;;;;5.45;3.10;;;;;;;26.02;43.92;100324.66;5094158;28;20091;-68
2023/07/23 05:35:56;;;;;;;5.28;3.22;;;;;;;26.01;43.84;100333.88;5093884;28;20051;-66
2023/07/23 05:38:26;;;;;;;4.65;2.75;;;;;;;25.96;44.17;100330.88;5094230;28;20044;-68
2023/07/23 05:40:56;;;;;;;4.43;3.08;;;;;;;26.00;44.05;100337.66;5094094;28;20157;-67
2023/07/23 05:43:25;;;;;;;5.47;3.15;;;;;;;26.01;44.05;100346.72;5093969;28;20055;-67
2023/07/23 05:45:57;;;;;;;5.13;3.30;;;;;;;26.00;44.08;100340.41;5093848;28;20459;-68
2023/07/23 05:48:25;;;;;;;7.25;3.85;;;;;;;26.01;43.85;100344.81;5093862;28;20055;-68
2023/07/23 05:50:53;;;;;;;5.30;2.97;;;;;;;26.01;44.17;100346.72;5093907;28;20048;-68
2023/07/23 05:53:21;;;;;;;5.15;3.30;;;;;;;26.02;43.74;100351.13;5093876;28;20051;-67
2023/07/23 05:55:54;;;;;;;4.20;2.90;;;;;;;26.02;43.85;100351.13;5093651;28;20052;-67
2023/07/23 05:58:22;;;;;;;4.38;2.85;;;;;;;25.99;43.62;100346.91;5093712;28;20101;-67
2023/07/23 06:00:50;;;;;;;5.10;2.97;;;;;;;25.98;44.08;100345.22;5093492;28;20444;-67
2023/07/23 06:03:18;;;;;;;5.57;3.00;;;;;;;26.00;43.91;100354.06;5093438;28;20147;-67
2023/07/23 06:05:47;;;;;;;5.53;3.25;;;;;;;25.99;43.99;100341.44;5093212;28;20135;-67
2023/07/23 06:08:15;;;;;;;6.25;3.00;;;;;;;26.00;43.80;100343.13;5093496;28;20044;-67
2023/07/23 06:10:44;;;;;;;4.80;3.00;;;;;;;26.01;43.92;100336.63;5093249;28;20055;-69
2023/07/23 06:13:13;;;;;;;6.13;3.10;;;;;;;25.99;43.54;100333.25;5093377;28;20056;-69
2023/07/23 06:15:41;;;;;;;4.57;2.95;;;;;;;26.00;43.72;100339.56;5093431;28;20059;-67
2023/07/23 06:18:09;;;;;;;5.18;3.03;;;;;;;26.00;44.18;100343.13;5093581;28;20048;-68
2023/07/23 06:20:38;;;;;;;4.50;2.95;;;;;;;26.01;44.07;100336.63;5093316;28;20044;-69
2023/07/23 06:23:06;;;;;;;4.15;2.75;;;;;;;26.01;43.91;100341.25;5093070;28;20048;-68
2023/07/23 06:25:34;;;;;;;5.30;3.20;;;;;;;26.01;44.06;100339.34;5092983;28;20058;-69
2023/07/23 06:28:02;;;;;;;4.65;2.63;;;;;;;26.01;44.34;100333.88;5092845;28;20048;-68
2023/07/23 06:30:33;;;;;;;4.68;3.13;;;;;;;26.01;43.88;100347.56;5093187;28;20044;-68
2023/07/23 06:33:04;;;;;;;5.28;3.17;;;;;;;26.01;44.10;100344.81;5093042;28;20082;-68
2023/07/23 06:35:37;;;;;;;5.70;3.45;;;;;;;26.02;44.23;100357.44;5092782;28;20055;-68
2023/07/23 06:38:05;;;;;;;5.32;3.35;;;;;;;26.01;44.14;100355.75;5092792;28;20162;-67
2023/07/23 06:40:33;;;;;;;5.22;3.08;;;;;;;26.02;44.40;100351.97;5092740;28;20044;-67
2023/07/23 06:43:01;;;;;;;5.97;3.47;;;;;;;26.02;44.19;100362.06;5092938;28;20149;-69
2023/07/23 06:45:30;;;;;;;5.53;3.08;;;;;;;26.02;44.13;100357.44;5092982;28;20117;-69
2023/07/23 06:47:59;;;;;;;4.57;3.20;;;;;;;26.04;44.42;100349.06;5092939;28;20048;-69
2023/07/23 06:50:30;;;;;;;6.25;3.33;;;;;;;26.04;44.42;100344.44;5092650;28;20044;-68
2023/07/23 06:52:58;;;;;;;5.13;3.33;;;;;;;26.03;44.60;100344.63;5092615;28;20043;-68
2023/07/23 06:55:29;;;;;;;6.30;3.10;;;;;;;26.05;44.62;100350.75;5092694;28;20397;-68
2023/07/23 06:57:57;;;;;;;5.65;3.30;;;;;;;26.04;44.32;100349.91;5092533;28;20048;-68
2023/07/23 07:00:26;;;;;;;5.47;3.40;;;;;;;26.04;44.72;100349.91;5092626;28;20058;-68
2023/07/23 07:02:54;;;;;;;4.80;3.20;;;;;;;26.04;44.61;100355.38;5092479;28;20047;-67
2023/07/23 07:05:23;;;;;;;5.30;3.40;;;;;;;26.05;44.68;100357.06;5092333;28;20127;-68
2023/07/23 07:07:52;;;;;;;4.90;3.15;;;;;;;26.04;44.58;100347.16;5092209;28;20466;-67
2023/07/23 07:10:20;;;;;;;5.57;2.95;;;;;;;26.05;44.14;100346.13;5092168;28;20109;-68
2023/07/23 07:12:48;;;;;;;5.60;3.55;;;;;;;26.05;44.67;100351.59;5092340;28;20052;-68
2023/07/23 07:15:17;;;;;;;4.70;3.00;;;;;;;26.07;44.15;100355.00;5092131;28;20044;-69
2023/07/23 07:17:45;;;;;;;5.40;3.08;;;;;;;26.06;44.81;100345.13;5091479;28;20125;-68
2023/07/23 07:20:14;;;;;;;5.10;3.28;;;;;;;26.08;44.32;100351.22;5091980;28;20054;-68
2023/07/23 07:22:43;;;;;;;5.40;3.30;;;;;;;26.08;44.20;100351.22;5091932;28;20058;-68
2023/07/23 07:25:11;;;;;;;5.57;3.20;;;;;;;26.08;44.56;100343.03;5092005;28;20047;-68
2023/07/23 07:27:40;;;;;;;5.60;3.17;;;;;;;26.09;44.50;100342.00;5091992;28;20071;-68
2023/07/23 07:30:09;;;;;;;5.70;3.45;;;;;;;26.08;44.53;100343.03;5091945;28;20090;-69
2023/07/23 07:32:38;;;;;;;6.35;3.40;;;;;;;26.10;44.69;100343.69;5092028;28;20140;-68
2023/07/23 07:35:07;;;;;;;4.97;3.13;;;;;;;26.10;44.36;100338.22;5091632;28;20131;-69
2023/07/23 07:37:35;;;;;;;3.75;2.65;;;;;;;26.13;44.33;100340.56;5091768;28;20409;-71
2023/07/23 07:40:06;;;;;;;5.63;3.08;;;;;;;26.11;44.29;100337.19;5091842;28;20409;-65
2023/07/23 07:42:34;;;;;;;4.50;3.10;;;;;;;26.12;44.41;100346.22;5092109;28;20040;-68
2023/07/23 07:45:02;;;;;;;5.05;3.28;;;;;;;26.12;44.46;100341.59;5091613;28;20054;-69
2023/07/23 07:47:33;;;;;;;5.25;3.20;;;;;;;26.12;44.22;100338.88;5091611;28;20572;-68
2023/07/23 07:50:03;;;;;;;4.82;3.08;;;;;;;26.13;44.19;100331.50;5092032;28;20052;-66
2023/07/23 07:52:31;;;;;;;4.85;3.00;;;;;;;26.14;44.50;100336.78;5091733;28;20046;-66
2023/07/23 07:55:00;;;;;;;5.70;2.92;;;;;;;26.14;44.54;100347.72;5091405;28;20131;-66
2023/07/23 07:57:30;;;;;;;5.75;3.28;;;;;;;26.14;44.39;100342.25;5091504;28;20083;-66
2023/07/23 08:00:02;;;;;;;5.00;3.00;;;;;;;26.15;44.23;100346.72;5091293;28;20048;-65
2023/07/23 08:02:32;;;;;;;;;;;;;;;26.16;44.46;100342.09;5092250;28;20410;-65
2023/07/23 08:05:01;;;;;;;5.72;2.72;;;;;;;26.17;44.51;100333.69;5091331;28;20396;-66
2023/07/23 08:07:31;;;;;;;4.03;2.63;;;;;;;26.16;44.46;100332.00;5091346;28;20463;-66
2023/07/23 08:10:00;;;;;;;4.68;3.03;;;;;;;26.17;44.15;100333.69;5091193;28;20136;-67
2023/07/23 08:12:31;;;;;;;4.95;2.92;;;;;;;26.18;44.17;100335.38;5091328;28;20163;-66
2023/07/23 08:15:00;;;;;;;4.78;2.90;;;;;;;26.18;44.16;100327.19;5091645;28;20068;-66
2023/07/23 08:17:28;;;;;;;4.68;2.70;;;;;;;26.18;44.47;100332.66;5091312;28;20048;-66
2023/07/23 08:19:57;;;;;;;4.40;2.63;;;;;;;26.19;44.18;100325.28;5091322;28;20040;-67
2023/07/23 08:22:25;;;;;;;5.00;2.90;;;;;;;26.20;43.88;100337.91;5091282;28;20044;-68
2023/07/23 08:24:54;;;;;;;4.13;2.70;;;;;;;26.18;44.35;100324.44;5091306;28;20044;-67
2023/07/23 08:27:24;;;;;;;4.57;2.70;;;;;;;26.21;44.23;100329.53;5073622;28;20076;-65
2023/07/23 08:29:58;;;;;;;4.25;2.75;;;;;;;26.22;44.13;100324.91;5095476;28;20506;-67
2023/07/23 08:32:38;;;;;;;4.45;2.75;;;;;;;26.23;43.82;100323.84;5095240;28;20408;-67
2023/07/23 08:35:07;;;;;;;5.00;2.55;;;;;;;26.23;44.22;100332.06;5095285;28;20048;-66
2023/07/23 08:37:36;;;;;;;4.22;2.47;;;;;;;26.24;44.14;100323.66;5094949;28;20052;-67
2023/07/23 08:40:05;;;;;;;5.38;2.78;;;;;;;26.25;43.77;100330.00;5095116;28;20489;-67
2023/07/23 08:42:57;;;;;;;3.92;2.45;;;;;;;26.27;43.79;100329.81;5076938;28;20479;-67
2023/07/23 08:46:02;;;;;;;4.13;2.70;;;;;;;26.26;43.88;100323.50;5094986;28;20051;-68
2023/07/23 08:48:50;;;;;;;5.07;2.55;;;;;;;26.24;44.07;100323.66;5091113;28;20072;-67
2023/07/23 08:51:18;;;;;;;5.05;2.92;;;;;;;26.26;44.13;100326.22;5094815;28;20044;-67
2023/07/23 08:53:47;;;;;;;4.47;2.65;;;;;;;26.27;43.66;100325.19;5094801;28;20067;-67
2023/07/23 08:56:17;;;;;;;3.65;2.40;;;;;;;26.28;44.02;100326.88;5094516;28;20140;-66
2023/07/23 08:58:46;;;;;;;4.75;2.92;;;;;;;26.30;43.81;100332.16;5094638;28;20044;-67
2023/07/23 09:01:17;;;;;;;4.35;2.55;;;;;;;26.31;43.79;100339.31;5094802;28;20048;-67
2023/07/23 09:03:45;;;;;;;4.32;2.38;;;;;;;26.31;43.54;100329.22;5094618;28;20481;-67
2023/07/23 09:06:14;;;;;;;4.47;2.08;;;;;;;26.31;43.89;100333.84;5094621;28;20055;-67
2023/07/23 09:08:43;;;;;;;4.53;2.88;;;;;;;26.32;43.60;100332.78;5094569;28;20048;-67
2023/07/23 09:11:11;;;;;;;4.57;2.78;;;;;;;26.33;43.79;100337.22;5094324;28;20465;-68
2023/07/23 09:13:39;;;;;;;4.43;2.45;;;;;;;26.35;43.56;100335.16;5094801;28;20052;-68
2023/07/23 09:16:07;;;;;;;4.65;2.38;;;;;;;26.33;43.82;100331.75;5094762;28;20048;-68
2023/07/23 09:18:42;;;;;;;4.10;2.58;;;;;;;26.34;43.28;100336.19;5094213;28;20052;-68
2023/07/23 09:21:10;;;;;;;;;;;;;;;26.36;43.38;100334.97;5094947;28;20052;-68
2023/07/23 09:23:38;;;;;;;4.60;2.42;;;;;;;26.37;43.15;100338.53;5094151;28;19920;-68
2023/07/23 09:26:08;;;;;;;4.57;2.53;;;;;;;26.38;43.44;100341.13;5094508;28;20058;-66
2023/07/23 09:28:36;;;;;;;4.63;2.42;;;;;;;26.39;43.30;100328.28;5094175;28;20504;-67
2023/07/23 09:31:05;;;;;;;3.92;2.20;;;;;;;26.39;43.49;100333.75;5094276;28;20040;-67
2023/07/23 09:33:35;;;;;;;4.43;2.50;;;;;;;26.40;43.24;100333.56;5094147;28;20466;-67
2023/07/23 09:36:05;;;;;;;4.18;2.83;;;;;;;26.40;42.76;100332.72;5094003;28;20048;-68
2023/07/23 09:38:45;;;;;;;5.38;2.78;;;;;;;26.41;42.77;100339.88;5093868;28;20166;-66
2023/07/23 09:41:13;;;;;;;6.38;2.92;;;;;;;26.42;42.98;100331.47;5093431;28;20123;-68
2023/07/23 09:43:42;;;;;;;5.88;3.10;;;;;;;26.42;42.56;100327.91;5091083;28;20087;-67
2023/07/23 09:46:10;;;;;;;5.28;2.80;;;;;;;26.43;42.99;100324.97;5093227;28;20051;-65
2023/07/23 09:48:45;;;;;;;5.97;2.88;;;;;;;26.44;42.59;100328.53;5093374;28;20044;-65
2023/07/23 09:51:15;;;;;;;5.40;2.80;;;;;;;26.45;42.37;100322.06;5093454;28;20060;-66
2023/07/23 09:53:45;;;;;;;5.97;2.80;;;;;;;26.43;42.18;100322.22;5093845;28;20048;-66
2023/07/23 09:56:15;;;;;;;4.78;2.78;;;;;;;26.46;42.27;100315.53;5093587;28;20044;-66
2023/07/23 09:58:47;;;;;;;4.45;2.75;;;;;;;26.48;42.41;100316.19;5092109;28;20044;-66
2023/07/23 10:01:17;;;;;;;4.77;2.80;;;;;;;26.49;42.23;100309.69;5092891;28;20048;-66
2023/07/23 10:03:47;;;;;;;5.03;2.60;;;;;;;26.49;42.66;100320.63;5092459;28;20846;-66
2023/07/23 10:06:20;;;;;;;5.45;2.97;;;;;;;26.51;42.07;100318.53;5092282;28;20135;-66
2023/07/23 10:08:49;;;;;;;4.22;2.67;;;;;;;26.52;41.93;100315.59;5092671;28;20112;-66
2023/07/23 10:11:20;;;;;;;4.60;2.80;;;;;;;26.53;42.00;100308.22;5093293;28;20040;-66
2023/07/23 10:13:48;;;;;;;4.53;3.00;;;;;;;26.54;42.00;100318.16;5093122;28;20160;-66
2023/07/23 10:16:22;;;;;;;4.80;2.80;;;;;;;26.53;42.06;100295.41;5093110;28;20044;-66
2023/07/23 10:18:54;;;;;;;4.18;2.70;;;;;;;26.57;42.09;100301.34;5092721;28;20469;-66
2023/07/23 10:21:24;;;;;;;;;;;;;;;26.57;41.99;100301.34;5090875;28;20105;-65
2023/07/23 10:23:56;;;;;;;4.93;3.05;;;;;;;26.58;42.02;100300.31;5092229;28;20361;-66
2023/07/23 10:26:26;;;;;;;5.80;3.35;;;;;;;26.60;41.74;100303.69;5092770;28;20044;-69
2023/07/23 10:28:58;;;;;;;4.97;2.92;;;;;;;26.63;41.87;100299.69;5092825;28;20055;-66
2023/07/23 10:31:28;;;;;;;6.05;2.88;;;;;;;26.65;41.62;100293.03;5074707;28;20044;-67
2023/07/23 10:33:57;;;;;;;4.50;2.70;;;;;;;26.63;41.46;100284.13;5092697;28;20047;-70
2023/07/23 10:36:30;;;;;;;4.95;3.00;;;;;;;26.68;41.79;100292.63;5092148;28;20084;-67
2023/07/23 10:39:17;;;;;;;5.60;2.90;;;;;;;26.67;41.83;100296.41;5092269;28;20135;-70
2023/07/23 10:41:54;;;;;;;4.80;2.88;;;;;;;26.72;41.64;100293.06;5092679;28;20048;-68
2023/07/23 10:44:23;;;;;;;4.80;3.00;;;;;;;26.72;41.35;100284.84;5092629;28;20080;-69
2023/07/23 10:46:52;;;;;;;5.03;3.17;;;;;;;26.74;41.40;100277.31;5092584;28;20056;-69
2023/07/23 10:49:22;;;;;;;5.57;3.15;;;;;;;26.75;41.50;100277.13;5074647;28;20134;-69
2023/07/23 10:51:52;;;;;;;5.03;3.15;;;;;;;26.78;40.91;100282.19;5091763;28;20055;-69
2023/07/23 10:54:21;;;;;;;6.35;3.22;;;;;;;26.80;40.68;100274.63;5091975;28;20131;-67
2023/07/23 10:56:50;;;;;;;5.35;3.28;;;;;;;26.82;40.71;100266.22;5092470;28;20048;-71
2023/07/23 10:59:21;;;;;;;6.10;3.08;;;;;;;26.86;40.65;100261.22;5092428;28;20052;-67
2023/07/23 11:01:51;;;;;;;6.13;3.40;;;;;;;26.88;41.18;100275.53;5092389;28;20044;-66
2023/07/23 11:04:25;;;;;;;6.60;3.67;;;;;;;26.92;41.47;100271.34;5092299;28;20059;-67
2023/07/23 11:07:00;;;;;;;5.75;3.53;;;;;;;26.94;41.60;100258.34;5092495;28;20048;-67
2023/07/23 11:09:30;;;;;;;5.93;3.70;;;;;;;26.98;41.78;100255.00;5092057;28;20562;-67
2023/07/23 11:12:00;;;;;;;5.82;3.40;;;;;;;27.00;41.31;100252.88;5092277;28;20060;-67
2023/07/23 11:14:29;;;;;;;4.97;3.50;;;;;;;27.04;40.90;100253.38;5091958;28;20052;-67
2023/07/23 11:17:01;;;;;;;5.70;3.35;;;;;;;27.05;40.49;100249.59;5092073;28;20079;-68
2023/07/23 11:19:31;;;;;;;5.28;3.10;;;;;;;27.04;40.79;100243.28;5091958;28;20083;-64
2023/07/23 11:22:02;;;;;;;5.60;3.30;;;;;;;27.08;40.45;100244.56;5091993;28;20459;-65
2023/07/23 11:24:32;;;;;;;5.65;3.50;;;;;;;27.11;40.07;100243.31;5091798;28;20040;-66
2023/07/23 11:27:02;;;;;;;5.47;3.10;;;;;;;27.12;40.04;100247.78;5091773;28;20121;-66
2023/07/23 11:29:31;;;;;;;5.18;3.13;;;;;;;27.15;39.62;100239.16;5092083;28;20056;-66
2023/07/23 11:32:04;;;;;;;5.32;3.20;;;;;;;27.18;39.41;100233.25;5091908;28;20048;-66
2023/07/23 11:34:32;;;;;;;5.35;3.25;;;;;;;27.20;39.37;100224.84;5091900;28;20071;-65
2023/07/23 11:37:02;;;;;;;5.72;3.28;;;;;;;27.21;39.29;100226.53;5091821;28;20047;-66